Terminal Aerodrome Forecast
Issued by NWS Blacksburg, VA

Current Version | Previous Version | Graphics & Text | Print | Product List | Glossary On
Versions: 1 2 3 4 5 6 7 8 9 10 11 12 13 14 15 16 17 18 19 20 21 22 23 24 25 26 27 28 29
000
FTUS41 KRNK 232326
TAFBLF
TAF
KBLF 232326Z 2400/2424 27007KT P6SM SCT050 BKN200
     FM240200 27005KT P6SM VCTS BKN040CB
     FM240800 23005KT P6SM BKN050
     FM241300 26004KT P6SM BKN025
     FM241400 28005KT P6SM VCTS SCT040CB
     FM241800 30010KT P6SM BKN050=

USA.gov is the U.S. government's official web portal to all federal, state and local government web resources and services.